Palmayachts — CRA6482 — position and weather

sailwx.info

Track history (hours):
 
Tides and Currents Weather Stations Pressure Air Temp Water Temp Dewpoint Dewpoint Depression Visibility Wind Speed Wind Dir Waves Ship Positions

Palmayachts

Last reported at 2017-Nov-19 17:38 UTC. Time now 2017-Nov-22 07:36 UTC.
Position N 38°42' W 009°12'.

Length 11 m.

Type: Sailing vessel. MMSI: 263950950.

Date/timePositionNaut miles runAvg speedWind from/ knotsBaromVisibWave heightAir tempDewpointWater temp
2017-Nov-19 17:38N 38°42' W 009°12'0 1.9
2017-Nov-19 17:30N 38°42' W 009°13'1 2.8
2017-Nov-19 16:59N 38°41' W 009°11'2 4.6
2017-Nov-19 16:30N 38°42' W 009°08'2 4.2
2017-Nov-19 15:58N 38°42' W 009°11'1 0.1
2017-Nov-18 17:39N 38°42' W 009°12'0 1.6
2017-Nov-18 17:30N 38°42' W 009°13'1 3.0
2017-Nov-18 17:00N 38°42' W 009°11'2 3.9
2017-Nov-18 16:30N 38°42' W 009°08'2 4.4
2017-Nov-18 15:59N 38°42' W 009°11'1 0.0
2017-Nov-17 17:53N 38°42' W 009°12'1 1.3
2017-Nov-17 17:30N 38°41' W 009°13'2 3.5
2017-Nov-17 16:59N 38°42' W 009°11'2 4.3
2017-Nov-17 16:30N 38°42' W 009°08'2 4.2
2017-Nov-17 15:57N 38°42' W 009°11'1 0.0
2017-Nov-16 15:28N 38°42' W 009°12'0 0.4
2017-Nov-16 14:59N 38°42' W 009°12'2 2.8
2017-Nov-16 14:26N 38°42' W 009°14'0 0.0
2017-Nov-16 13:56N 38°42' W 009°14'0 0.0
2017-Nov-16 13:26N 38°42' W 009°14'0 0.0
2017-Nov-16 12:59N 38°42' W 009°14'2 3.9
2017-Nov-16 12:29N 38°42' W 009°12'2 4.4
2017-Nov-16 12:00N 38°42' W 009°09'2 4.2
2017-Nov-16 11:30N 38°42' W 009°12'0 0.0
2017-Nov-15 17:38N 38°42' W 009°12'0 1.8
2017-Nov-15 17:28N 38°42' W 009°13'1 2.8
2017-Nov-15 17:01N 38°41' W 009°11'2 4.0
2017-Nov-15 16:29N 38°42' W 009°09'1 2.2
2017-Nov-15 16:00N 38°42' W 009°10'2 0.5
2017-Nov-15 12:12N 38°42' W 009°12'1 4.7
2017-Nov-15 12:00N 38°41' W 009°12'0 0.8
2017-Nov-15 11:28N 38°41' W 009°12'1 0.0
2017-Nov-14 17:32N 38°42' W 009°12'0 1.2
2017-Nov-14 17:23N 38°42' W 009°12'2 4.4
2017-Nov-14 16:58N 38°42' W 009°10'1 0.9
2017-Nov-14 16:18N 38°42' W 009°10'1 4.8
2017-Nov-14 16:00N 38°42' W 009°12'1 0.0
2017-Nov-12 17:51N 38°42' W 009°12'0 0.6
2017-Nov-12 17:29N 38°41' W 009°12'2 4.3
2017-Nov-12 16:57N 38°42' W 009°09'0 0.7
2017-Nov-12 16:28N 38°42' W 009°09'2 4.3
2017-Nov-12 15:59N 38°42' W 009°11'1 1.2
2017-Nov-12 15:28N 38°42' W 009°12'1 1.6
2017-Nov-12 14:59N 38°41' W 009°12'1 1.7
2017-Nov-12 14:29N 38°42' W 009°11'1 1.2
2017-Nov-12 14:00N 38°42' W 009°11'1 0.0
2017-Nov-11 17:55N 38°42' W 009°12'0 0.9
2017-Nov-11 17:30N 38°42' W 009°12'2 3.9
2017-Nov-11 17:00N 38°42' W 009°09'1 1.1
2017-Nov-11 16:18N 38°42' W 009°10'2 5.1
2017-Nov-11 15:59N 38°42' W 009°12'0 0.2
2017-Nov-11 15:23N 38°42' W 009°12'0 0.0
2017-Nov-10 12:12N 38°42' W 009°12'0 1.1
2017-Nov-10 11:58N 38°41' W 009°12'2 4.9
2017-Nov-10 11:30N 38°42' W 009°09'0 1.0
2017-Nov-10 10:59N 38°42' W 009°09'2 4.3
2017-Nov-10 10:24N 38°42' W 009°12'0 0.5
2017-Nov-10 09:58N 38°42' W 009°12'  
Track history (hours):
 
Tides and Currents Weather Stations Pressure Air Temp Water Temp Dewpoint Dewpoint Depression Visibility Wind Speed Wind Dir Waves Ship Positions

Palmayachts

Last reported at 2017-Nov-19 17:38 UTC. Time now 2017-Nov-22 07:36 UTC.
Position N 38°42' W 009°12'.

Length 11 m.

Type: Sailing vessel. MMSI: 263950950.

Date/timePositionNaut miles runAvg speedWind from/ knotsBaromVisibWave heightAir tempDewpointWater temp
2017-Nov-19 17:38N 38°42' W 009°12'0 1.9
2017-Nov-19 17:30N 38°42' W 009°13'1 2.8
2017-Nov-19 16:59N 38°41' W 009°11'2 4.6
2017-Nov-19 16:30N 38°42' W 009°08'2 4.2
2017-Nov-19 15:58N 38°42' W 009°11'1 0.1
2017-Nov-18 17:39N 38°42' W 009°12'0 1.6
2017-Nov-18 17:30N 38°42' W 009°13'1 3.0
2017-Nov-18 17:00N 38°42' W 009°11'2 3.9
2017-Nov-18 16:30N 38°42' W 009°08'2 4.4
2017-Nov-18 15:59N 38°42' W 009°11'1 0.0
2017-Nov-17 17:53N 38°42' W 009°12'1 1.3
2017-Nov-17 17:30N 38°41' W 009°13'2 3.5
2017-Nov-17 16:59N 38°42' W 009°11'2 4.3
2017-Nov-17 16:30N 38°42' W 009°08'2 4.2
2017-Nov-17 15:57N 38°42' W 009°11'1 0.0
2017-Nov-16 15:28N 38°42' W 009°12'0 0.4
2017-Nov-16 14:59N 38°42' W 009°12'2 2.8
2017-Nov-16 14:26N 38°42' W 009°14'0 0.0
2017-Nov-16 13:56N 38°42' W 009°14'0 0.0
2017-Nov-16 13:26N 38°42' W 009°14'0 0.0
2017-Nov-16 12:59N 38°42' W 009°14'2 3.9
2017-Nov-16 12:29N 38°42' W 009°12'2 4.4
2017-Nov-16 12:00N 38°42' W 009°09'2 4.2
2017-Nov-16 11:30N 38°42' W 009°12'0 0.0
2017-Nov-15 17:38N 38°42' W 009°12'0 1.8
2017-Nov-15 17:28N 38°42' W 009°13'1 2.8
2017-Nov-15 17:01N 38°41' W 009°11'2 4.0
2017-Nov-15 16:29N 38°42' W 009°09'1 2.2
2017-Nov-15 16:00N 38°42' W 009°10'2 0.5
2017-Nov-15 12:12N 38°42' W 009°12'1 4.7
2017-Nov-15 12:00N 38°41' W 009°12'0 0.8
2017-Nov-15 11:28N 38°41' W 009°12'1 0.0
2017-Nov-14 17:32N 38°42' W 009°12'0 1.2
2017-Nov-14 17:23N 38°42' W 009°12'2 4.4
2017-Nov-14 16:58N 38°42' W 009°10'1 0.9
2017-Nov-14 16:18N 38°42' W 009°10'1 4.8
2017-Nov-14 16:00N 38°42' W 009°12'1 0.0
2017-Nov-12 17:51N 38°42' W 009°12'0 0.6
2017-Nov-12 17:29N 38°41' W 009°12'2 4.3
2017-Nov-12 16:57N 38°42' W 009°09'0 0.7
2017-Nov-12 16:28N 38°42' W 009°09'2 4.3
2017-Nov-12 15:59N 38°42' W 009°11'1 1.2
2017-Nov-12 15:28N 38°42' W 009°12'1 1.6
2017-Nov-12 14:59N 38°41' W 009°12'1 1.7
2017-Nov-12 14:29N 38°42' W 009°11'1 1.2
2017-Nov-12 14:00N 38°42' W 009°11'1 0.0
2017-Nov-11 17:55N 38°42' W 009°12'0 0.9
2017-Nov-11 17:30N 38°42' W 009°12'2 3.9
2017-Nov-11 17:00N 38°42' W 009°09'1 1.1
2017-Nov-11 16:18N 38°42' W 009°10'2 5.1
2017-Nov-11 15:59N 38°42' W 009°12'0 0.2
2017-Nov-11 15:23N 38°42' W 009°12'0 0.0
2017-Nov-10 12:12N 38°42' W 009°12'0 1.1
2017-Nov-10 11:58N 38°41' W 009°12'2 4.9
2017-Nov-10 11:30N 38°42' W 009°09'0 1.0
2017-Nov-10 10:59N 38°42' W 009°09'2 4.3
2017-Nov-10 10:24N 38°42' W 009°12'0 0.5
2017-Nov-10 09:58N 38°42' W 009°12'  

Dump ship's entire track history